Time;durP1;ratioP1;P1;durP2;ratioP2;P2;SDS_P1;SDS_P2;PMS_P1;PMS_P2;Temp;Humidity;BMP_temperature;BMP_pressure;BME280_temperature;BME280_humidity;BME280_pressure;Samples;Min_cycle;Max_cycle;Signal;HPM_P1;HPM_P2
2023/03/17 00:01:59;;;;;;;;;;;;;;;5.38;75.48;99931.09;5091507;28;19959;-42
2023/03/17 00:04:26;;;;;;;;;;;;;;;5.16;76.21;99930.78;5091154;28;19919;-41
2023/03/17 00:06:51;;;;;;;;;;;;;;;5.02;77.12;99937.50;5091264;28;19923;-42
2023/03/17 00:09:18;;;;;;;;;;;;;;;5.03;77.39;99936.53;5091114;28;20327;-41
2023/03/17 00:11:44;;;;;;;;;;;;;;;5.09;76.93;99943.78;5091160;28;20307;-41
2023/03/17 00:14:09;;;;;;;;;;;;;;;5.30;76.58;99931.91;5091129;28;19912;-42
2023/03/17 00:16:42;;;;;;;;;;;;;;;5.11;76.86;99932.25;5090997;28;19912;-41
2023/03/17 00:19:20;;;;;;;;;;;;;;;5.38;76.07;99926.63;5090774;28;19916;-41
2023/03/17 00:21:45;;;;;;;;;;;;;;;5.37;75.79;99927.66;5091122;28;20326;-41
2023/03/17 00:24:11;;;;;;;;;;;;;;;5.16;76.77;99929.91;5091103;28;20416;-42
2023/03/17 00:26:37;;;;;;;;;;;;;;;5.69;75.54;99931.22;5090862;28;19989;-41
2023/03/17 00:29:02;;;;;;;;;;;;;;;5.16;77.48;99936.03;5090855;28;19916;-41
2023/03/17 00:31:31;;;;;;;;;;;;;;;5.20;77.36;99936.53;5090653;28;20391;-42
2023/03/17 00:33:57;;;;;;;;;;;;;;;5.19;77.62;99935.69;5091275;28;19912;-42
2023/03/17 00:36:27;;;;;;;;;;;;;;;5.12;77.34;99932.06;5091193;28;19912;-42
2023/03/17 00:38:52;;;;;;;;;;;;;;;5.23;78.05;99937.03;5091126;28;19951;-42
2023/03/17 00:41:17;;;;;;;;;;;;;;;4.98;78.41;99938.81;5090114;28;19955;-42
2023/03/17 00:43:43;;;;;;;;;;;;;;;5.04;78.19;99939.97;5091023;28;19916;-42
2023/03/17 00:46:13;;;;;;;;;;;;;;;5.22;77.90;99931.94;5090623;28;19912;-42
2023/03/17 00:48:39;;;;;;;;;;;;;;;5.33;77.78;99934.25;5090604;28;19913;-42
2023/03/17 00:51:04;;;;;;;;;;;;;;;5.40;77.16;99937.84;5091648;28;19969;-42
2023/03/17 00:53:30;;;;;;;;;;;;;;;5.46;76.61;99928.44;5091589;28;20053;-41
2023/03/17 00:55:55;;;;;;;;;;;;;;;5.33;77.23;99933.41;5091418;28;19944;-41
2023/03/17 00:58:28;;;;;;;;;;;;;;;5.51;76.46;99930.59;5091156;28;19937;-42
2023/03/17 01:00:54;;;;;;;;;;;;;;;5.45;75.85;99943.47;5091296;28;19916;-41
2023/03/17 01:03:20;;;;;;;;;;;;;;;4.92;78.39;99943.91;5091661;28;20256;-43
2023/03/17 01:05:45;;;;;;;;;;;;;;;5.13;77.78;99944.28;5091636;28;19916;-42
2023/03/17 01:08:11;;;;;;;;;;;;;;;5.36;77.31;99949.72;5091287;28;20385;-41
2023/03/17 01:10:36;;;;;;;;;;;;;;;5.24;77.17;99951.06;5091238;28;19912;-41
2023/03/17 01:13:03;;;;;;;;;;;;;;;5.44;76.73;99956.81;5090985;28;19916;-41
2023/03/17 01:15:30;;;;;;;;;;;;;;;5.21;77.11;99956.66;5091442;28;19912;-41
2023/03/17 01:17:56;;;;;;;;;;;;;;;5.27;76.83;99954.19;5090782;28;19912;-42
2023/03/17 01:20:26;;;;;;;;;;;;;;;5.19;77.76;99956.00;5090970;28;19920;-41
2023/03/17 01:22:52;;;;;;;;;;;;;;;5.44;76.46;99965.56;5091002;28;19920;-42
2023/03/17 01:25:17;;;;;;;;;;;;;;;5.58;76.17;99960.59;5091193;28;19939;-42
2023/03/17 01:27:43;;;;;;;;;;;;;;;5.73;75.03;99953.69;5091217;28;20224;-42
2023/03/17 01:30:12;;;;;;;;;;;;;;;5.39;75.78;99970.53;5091099;28;19989;-42
2023/03/17 01:32:38;;;;;;;;;;;;;;;5.25;75.78;99956.19;5091008;28;19912;-42
2023/03/17 01:35:03;;;;;;;;;;;;;;;5.06;78.10;99967.00;5090928;28;19994;-42
2023/03/17 01:37:29;;;;;;;;;;;;;;;5.20;76.69;99973.50;5090913;28;20374;-42
2023/03/17 01:39:54;;;;;;;;;;;;;;;5.33;76.81;99973.84;5091052;28;19916;-42
2023/03/17 01:42:19;;;;;;;;;;;;;;;5.37;76.73;99964.59;5090856;28;19916;-43
2023/03/17 01:45:06;;;;;;;;;;;;;;;5.45;75.68;99971.69;5090786;28;19999;-43
2023/03/17 01:47:31;;;;;;;;;;;;;;;5.49;75.71;99973.00;5090757;28;20018;-43
2023/03/17 01:50:05;;;;;;;;;;;;;;;5.35;75.48;99973.63;5090727;28;20387;-43
2023/03/17 01:52:33;;;;;;;;;;;;;;;5.38;76.22;99974.16;5091842;28;19951;-43
2023/03/17 01:55:14;;;;;;;;;;;;;;;5.25;75.82;99982.56;5094262;28;19912;-41
2023/03/17 01:57:49;;;;;;;;;;;;;;;5.19;76.51;99975.28;5094388;28;19930;-42
2023/03/17 02:00:25;;;;;;;;;;;;;;;5.45;75.36;99980.41;5094551;28;19998;-42
2023/03/17 02:02:52;;;;;;;;;;;;;;;5.63;74.72;99984.72;5094483;28;19923;-41
2023/03/17 02:05:22;;;;;;;;;;;;;;;5.59;74.13;99989.50;5093994;28;20592;-36
2023/03/17 02:07:47;;;;;;;;;;;;;;;5.45;74.73;99980.41;5094235;28;19939;-37
2023/03/17 02:10:14;;;;;;;;;;;;;;;5.62;73.95;99988.34;5094135;28;19956;-36
2023/03/17 02:12:41;;;;;;;;;;;;;;;5.46;74.17;99984.72;5094025;28;20257;-36
2023/03/17 02:15:06;;;;;;;;;;;;;;;5.42;75.25;99983.38;5094200;28;19912;-36
2023/03/17 02:17:32;;;;;;;;;;;;;;;5.54;74.36;99989.19;5093922;28;20031;-36
2023/03/17 02:20:10;;;;;;;;;;;;;;;5.72;73.80;99986.38;5094111;28;19920;-37
2023/03/17 02:22:36;;;;;;;;;;;;;;;5.99;72.29;99992.31;5093792;28;19912;-37
2023/03/17 02:25:01;;;;;;;;;;;;;;;6.03;71.39;99991.78;5093947;28;20307;-36
2023/03/17 02:27:32;;;;;;;;;;;;;;;5.93;72.19;99987.66;5093708;28;19924;-37
2023/03/17 02:29:58;;;;;;;;;;;;;;;5.67;72.73;100000.06;5093968;28;19985;-36
2023/03/17 02:32:24;;;;;;;;;;;;;;;5.72;72.05;99999.56;5093899;28;20415;-37
2023/03/17 02:34:49;;;;;;;;;;;;;;;6.01;70.86;99995.59;5093716;28;20284;-37
2023/03/17 02:37:16;;;;;;;;;;;;;;;5.84;71.87;100014.06;5093610;28;19912;-37
2023/03/17 02:39:41;;;;;;;;;;;;;;;5.88;71.56;100002.22;5093523;28;20307;-37
2023/03/17 02:42:07;;;;;;;;;;;;;;;5.93;71.46;100006.16;5093385;28;19919;-37
2023/03/17 02:44:32;;;;;;;;;;;;;;;6.04;70.55;100011.94;5093569;28;19937;-37
2023/03/17 02:46:58;;;;;;;;;;;;;;;6.07;70.47;100008.16;5093785;28;19922;-37
2023/03/17 02:49:24;;;;;;;;;;;;;;;6.10;70.45;100013.09;5093128;28;19916;-37
2023/03/17 02:51:50;;;;;;;;;;;;;;;5.93;69.93;100022.00;5093529;28;19912;-36
2023/03/17 02:54:15;;;;;;;;;;;;;;;5.92;70.14;100004.50;5093209;28;20385;-37
2023/03/17 02:56:40;;;;;;;;;;;;;;;5.82;70.67;100021.34;5093331;28;19964;-37
2023/03/17 02:59:06;;;;;;;;;;;;;;;6.01;69.94;100014.91;5093097;28;20372;-37
2023/03/17 03:01:32;;;;;;;;;;;;;;;5.91;70.09;100024.81;5093040;28;19912;-37
2023/03/17 03:03:57;;;;;;;;;;;;;;;6.02;69.29;100013.94;5092643;28;19919;-37
2023/03/17 03:06:23;;;;;;;;;;;;;;;6.00;70.51;100026.50;5093193;28;20292;-37
2023/03/17 03:08:48;;;;;;;;;;;;;;;5.99;69.60;100031.94;5092946;28;19961;-37
2023/03/17 03:11:14;;;;;;;;;;;;;;;6.04;70.14;100035.72;5093010;28;20363;-37
2023/03/17 03:13:39;;;;;;;;;;;;;;;6.26;69.33;100039.50;5092861;28;19926;-37
2023/03/17 03:16:05;;;;;;;;;;;;;;;6.27;68.55;100035.03;5092726;28;19962;-37
2023/03/17 03:18:31;;;;;;;;;;;;;;;6.42;68.01;100036.00;5092933;28;19956;-37
2023/03/17 03:20:57;;;;;;;;;;;;;;;6.40;68.50;100045.91;5092787;28;20010;-37
2023/03/17 03:23:22;;;;;;;;;;;;;;;6.45;68.10;100037.47;5092734;28;20015;-37
2023/03/17 03:25:47;;;;;;;;;;;;;;;6.46;67.91;100041.78;5096150;28;19968;-37
2023/03/17 03:28:12;;;;;;;;;;;;;;;6.51;66.95;100042.09;5105021;28;20408;-37
2023/03/17 03:30:38;;;;;;;;;;;;;;;6.15;67.58;100050.44;5112314;28;19911;-37
2023/03/17 03:33:03;;;;;;;;;;;;;;;6.08;68.08;100046.78;5113020;28;20307;-37
2023/03/17 03:35:29;;;;;;;;;;;;;;;6.26;67.92;100047.44;5103615;28;20336;-37
2023/03/17 03:37:55;;;;;;;;;;;;;;;6.22;67.70;100042.63;5090883;28;19919;-37
2023/03/17 03:40:21;;;;;;;;;;;;;;;6.48;66.70;100046.91;5091898;28;20342;-35
2023/03/17 03:42:46;;;;;;;;;;;;;;;6.41;66.80;100049.38;5092492;28;19919;-37
2023/03/17 03:45:11;;;;;;;;;;;;;;;6.50;67.42;100044.91;5092260;28;20044;-35
2023/03/17 03:47:37;;;;;;;;;;;;;;;6.40;67.22;100045.09;5091951;28;19919;-35
2023/03/17 03:50:02;;;;;;;;;;;;;;;6.25;66.98;100047.59;5092189;28;19952;-36
2023/03/17 03:52:27;;;;;;;;;;;;;;;6.39;66.70;100049.53;5092133;28;19912;-36
2023/03/17 03:54:53;;;;;;;;;;;;;;;6.48;66.37;100050.38;5092095;28;19923;-35
2023/03/17 03:57:18;;;;;;;;;;;;;;;6.55;66.10;100048.69;5091876;28;19916;-36
2023/03/17 03:59:43;;;;;;;;;;;;;;;6.35;66.78;100058.00;5092454;28;19920;-36
2023/03/17 04:02:09;;;;;;;;;;;;;;;6.36;66.53;100060.47;5091822;28;20229;-36
2023/03/17 04:04:34;;;;;;;;;;;;;;;6.30;66.80;100052.38;5091826;28;20003;-36
2023/03/17 04:07:00;;;;;;;;;;;;;;;6.20;66.73;100068.41;5091943;28;19919;-36
2023/03/17 04:09:25;;;;;;;;;;;;;;;6.28;67.01;100055.19;5091994;28;19919;-36
2023/03/17 04:11:51;;;;;;;;;;;;;;;6.27;66.83;100061.47;5092043;28;19912;-36
2023/03/17 04:14:17;;;;;;;;;;;;;;;6.15;67.00;100065.44;5092375;28;20062;-36
2023/03/17 04:16:42;;;;;;;;;;;;;;;6.11;66.40;100072.91;5091090;28;19953;-36
2023/03/17 04:19:07;;;;;;;;;;;;;;;6.21;66.40;100078.00;5091818;28;20452;-36
2023/03/17 04:21:33;;;;;;;;;;;;;;;6.62;65.09;100069.97;5089942;28;19920;-36
2023/03/17 04:23:58;;;;;;;;;;;;;;;6.54;65.61;100070.81;5091489;28;19931;-36
2023/03/17 04:26:23;;;;;;;;;;;;;;;6.62;64.68;100076.09;5091627;28;19912;-42
2023/03/17 04:28:49;;;;;;;;;;;;;;;6.62;64.83;100089.31;5090664;28;20402;-42
2023/03/17 04:31:14;;;;;;;;;;;;;;;6.87;63.24;100089.25;5088956;28;19916;-42
2023/03/17 04:33:39;;;;;;;;;;;;;;;6.86;63.58;100098.19;5092021;28;20011;-42
2023/03/17 04:36:06;;;;;;;;;;;;;;;6.77;64.35;100099.19;5091357;28;20430;-42
2023/03/17 04:38:32;;;;;;;;;;;;;;;6.54;65.05;100097.28;5091267;28;19916;-42
2023/03/17 04:40:57;;;;;;;;;;;;;;;6.74;64.09;100107.47;5091138;28;19949;-42
2023/03/17 04:43:23;;;;;;;;;;;;;;;6.79;62.85;100105.16;5091285;28;20010;-42
2023/03/17 04:45:48;;;;;;;;;;;;;;;6.59;63.97;100110.00;5090796;28;20037;-42
2023/03/17 04:48:13;;;;;;;;;;;;;;;6.93;63.60;100109.75;5091135;28;20276;-40
2023/03/17 04:50:39;;;;;;;;;;;;;;;6.79;62.97;100113.09;5090722;28;19952;-43
2023/03/17 04:53:04;;;;;;;;;;;;;;;6.77;62.95;100110.59;5089866;28;19922;-43
2023/03/17 04:55:29;;;;;;;;;;;;;;;6.92;62.75;100113.38;5089800;28;20592;-41
2023/03/17 04:57:55;;;;;;;;;;;;;;;6.80;62.81;100114.75;5090247;28;19920;-42
2023/03/17 05:00:20;;;;;;;;;;;;;;;6.90;63.00;100119.84;5090826;28;19977;-41
2023/03/17 05:02:45;;;;;;;;;;;;;;;6.90;63.38;100125.94;5090964;28;19912;-42
2023/03/17 05:05:11;;;;;;;;;;;;;;;6.84;62.65;100126.63;5090937;28;20363;-42
2023/03/17 05:07:37;;;;;;;;;;;;;;;7.07;62.53;100129.38;5091240;28;19913;-41
2023/03/17 05:10:02;;;;;;;;;;;;;;;6.72;63.35;100133.25;5091119;28;19939;-41
2023/03/17 05:12:28;;;;;;;;;;;;;;;6.68;63.46;100134.59;5091289;28;19956;-42
2023/03/17 05:14:53;;;;;;;;;;;;;;;6.85;62.86;100142.34;5090898;28;20360;-41
2023/03/17 05:17:18;;;;;;;;;;;;;;;6.68;63.06;100155.75;5091076;28;20110;-41
2023/03/17 05:19:43;;;;;;;;;;;;;;;7.00;62.43;100154.84;5090511;28;20360;-41
2023/03/17 05:22:09;;;;;;;;;;;;;;;6.87;62.67;100151.91;5090786;28;19916;-42
2023/03/17 05:24:34;;;;;;;;;;;;;;;6.74;63.51;100168.31;5090978;28;20312;-42
2023/03/17 05:26:59;;;;;;;;;;;;;;;6.92;62.92;100153.06;5091479;28;19921;-42
2023/03/17 05:29:25;;;;;;;;;;;;;;;6.81;63.55;100164.00;5094667;28;19919;-42
2023/03/17 05:31:50;;;;;;;;;;;;;;;8.67;80.92;100163.31;5094330;28;19923;-43
2023/03/17 05:34:16;;;;;;;;;;;;;;;8.63;58.35;100165.50;5094338;28;20360;-43
2023/03/17 05:36:42;;;;;;;;;;;;;;;8.19;59.00;100171.47;5094610;28;19947;-42
2023/03/17 05:39:07;;;;;;;;;;;;;;;7.52;60.66;100166.72;5094208;28;20017;-42
2023/03/17 05:41:33;;;;;;;;;;;;;;;7.26;60.87;100161.75;5094405;28;19993;-43
2023/03/17 05:43:59;;;;;;;;;;;;;;;7.55;61.09;100169.03;5093983;28;20368;-42
2023/03/17 05:46:25;;;;;;;;;;;;;;;7.33;61.37;100166.16;5094048;28;19918;-42
2023/03/17 05:48:50;;;;;;;;;;;;;;;7.48;60.76;100171.53;5093464;28;20412;-44
2023/03/17 05:51:16;;;;;;;;;;;;;;;7.34;61.49;100173.09;5093807;28;19958;-42
2023/03/17 05:53:42;;;;;;;;;;;;;;;7.32;61.53;100188.34;5093346;28;19916;-42
2023/03/17 05:56:08;;;;;;;;;;;;;;;7.50;61.11;100179.31;5091309;28;19912;-42
2023/03/17 05:58:33;;;;;;;;;;;;;;;8.70;70.85;100181.50;5093017;28;19912;-42
2023/03/17 06:00:59;;;;;;;;;;;;;;;10.79;64.44;100190.63;5092917;28;19950;-43
2023/03/17 06:03:25;;;;;;;;;;;;;;;11.32;56.32;100196.28;5093728;28;19932;-42
2023/03/17 06:05:50;;;;;;;;;;;;;;;12.25;53.25;100203.00;5093599;28;20014;-43
2023/03/17 06:08:16;;;;;;;;;;;;;;;13.44;52.51;100207.44;5093848;28;19958;-42
2023/03/17 06:10:41;;;;;;;;;;;;;;;14.02;43.91;100213.78;5093816;28;19994;-42
2023/03/17 06:13:07;;;;;;;;;;;;;;;14.50;43.35;100209.75;5093837;28;19912;-44
2023/03/17 06:15:32;;;;;;;;;;;;;;;13.27;43.47;100212.41;5093738;28;20053;-43
2023/03/17 06:17:58;;;;;;;;;;;;;;;11.88;46.27;100213.13;5093266;28;20295;-43
2023/03/17 06:20:23;;;;;;;;;;;;;;;11.63;47.03;100211.03;5093177;28;19920;-42
2023/03/17 06:22:49;;;;;;;;;;;;;;;11.71;47.08;100216.16;5092221;28;19920;-43
2023/03/17 06:25:14;;;;;;;;;;;;;;;12.40;45.96;100221.50;5093313;28;20007;-43
2023/03/17 06:27:41;;;;;;;;;;;;;;;12.31;46.78;100218.19;5093043;28;19965;-42
2023/03/17 06:30:07;;;;;;;;;;;;;;;12.67;45.37;100223.16;5093129;28;19935;-43
2023/03/17 06:32:33;;;;;;;;;;;;;;;13.39;44.13;100228.63;5093245;28;20371;-42
2023/03/17 06:34:58;;;;;;;;;;;;;;;13.65;43.05;100222.38;5093051;28;19913;-42
2023/03/17 06:37:24;;;;;;;;;;;;;;;13.75;42.91;100229.94;5093093;28;19999;-43
2023/03/17 06:39:49;;;;;;;;;;;;;;;13.82;42.66;100228.06;5092010;28;19923;-43
2023/03/17 06:42:14;;;;;;;;;;;;;;;14.24;41.28;100233.81;5093113;28;19985;-43
2023/03/17 06:44:40;;;;;;;;;;;;;;;14.49;40.61;100238.38;5093231;28;19912;-43
2023/03/17 06:47:06;;;;;;;;;;;;;;;14.27;41.39;100237.91;5091474;28;19981;-43
2023/03/17 06:49:31;;;;;;;;;;;;;;;13.68;41.73;100227.28;5092780;28;20371;-42
2023/03/17 06:51:56;;;;;;;;;;;;;;;13.77;41.61;100232.41;5093138;28;19912;-42
2023/03/17 06:54:24;;;;;;;;;;;;;;;14.12;41.11;100229.34;5092828;28;19923;-42
2023/03/17 06:56:50;;;;;;;;;;;;;;;14.28;40.90;100228.84;5092589;28;19912;-43
2023/03/17 06:59:15;;;;;;;;;;;;;;;14.17;41.27;100235.69;5092608;28;19912;-44
2023/03/17 07:01:40;;;;;;;;;;;;;;;13.72;40.95;100232.22;5092532;28;19923;-44
2023/03/17 07:04:06;;;;;;;;;;;;;;;13.78;42.28;100234.03;5092458;28;19987;-42
2023/03/17 07:06:32;;;;;;;;;;;;;;;14.62;40.67;100245.50;5092461;28;20020;-43
2023/03/17 07:08:58;;;;;;;;;;;;;;;15.29;39.43;100243.09;5092213;28;19934;-43
2023/03/17 07:11:23;;;;;;;;;;;;;;;15.87;38.15;100249.84;5092691;28;19913;-44
2023/03/17 07:13:49;;;;;;;;;;;;;;;16.05;37.13;100242.81;5092249;28;19919;-43
2023/03/17 07:16:18;;;;;;;;;;;;;;;16.50;36.49;100243.19;5092243;28;20005;-42
2023/03/17 07:18:43;;;;;;;;;;;;;;;17.30;35.62;100249.13;5092014;28;19954;-43
2023/03/17 07:21:09;;;;;;;;;;;;;;;16.58;35.23;100244.72;5091994;28;19920;-44
2023/03/17 07:23:34;;;;;;;;;;;;;;;17.26;34.62;100248.78;5092159;28;19951;-43
2023/03/17 07:26:00;;;;;;;;;;;;;;;17.56;34.59;100245.94;5091889;28;20003;-43
2023/03/17 07:28:25;;;;;;;;;;;;;;;18.20;33.18;100244.22;5091951;28;19916;-43
2023/03/17 07:30:51;;;;;;;;;;;;;;;18.47;32.69;100249.84;5091818;28;19923;-43
2023/03/17 07:33:19;;;;;;;;;;;;;;;18.76;32.44;100247.88;5092205;28;19969;-43
2023/03/17 07:35:45;;;;;;;;;;;;;;;19.17;32.15;100250.41;5091736;28;19961;-44
2023/03/17 07:38:10;;;;;;;;;;;;;;;19.76;30.74;100255.25;5092072;28;19916;-43
2023/03/17 07:40:36;;;;;;;;;;;;;;;19.71;30.33;100250.59;5091906;28;19924;-44
2023/03/17 07:43:01;;;;;;;;;;;;;;;19.76;30.66;100256.06;5090454;28;20663;-44
2023/03/17 07:45:27;;;;;;;;;;;;;;;20.11;30.00;100249.44;5092026;28;19947;-44
2023/03/17 07:47:52;;;;;;;;;;;;;;;19.74;29.75;100258.19;5092040;28;19923;-45
2023/03/17 07:50:18;;;;;;;;;;;;;;;19.95;29.15;100248.44;5091539;28;19912;-45
2023/03/17 07:52:43;;;;;;;;;;;;;;;19.83;29.18;100250.47;5091591;28;19918;-41
2023/03/17 07:55:12;;;;;;;;;;;;;;;19.64;29.88;100248.06;5091854;28;19912;-42
2023/03/17 07:57:38;;;;;;;;;;;;;;;20.09;29.62;100241.59;5091648;28;20376;-44
2023/03/17 08:00:07;;;;;;;;;;;;;;;20.18;29.22;100231.16;5091109;28;19974;-42
2023/03/17 08:02:33;;;;;;;;;;;;;;;20.56;28.12;100244.72;5091618;28;19919;-43
2023/03/17 08:04:59;;;;;;;;;;;;;;;20.78;27.71;100244.66;5091258;28;19912;-42
2023/03/17 08:07:24;;;;;;;;;;;;;;;19.69;28.66;100241.91;5091486;28;19912;-43
2023/03/17 08:09:50;;;;;;;;;;;;;;;20.44;28.35;100247.59;5091282;28;20312;-42
2023/03/17 08:12:15;;;;;;;;;;;;;;;19.51;26.01;100256.53;5090952;28;19988;-44
2023/03/17 08:14:40;;;;;;;;;;;;;;;18.84;27.26;100243.97;5091037;28;19920;-44
2023/03/17 08:17:06;;;;;;;;;;;;;;;18.54;28.97;100248.63;5090789;28;20307;-44
2023/03/17 08:19:32;;;;;;;;;;;;;;;17.55;28.90;100244.31;5090767;28;19916;-44
2023/03/17 08:21:57;;;;;;;;;;;;;;;16.69;30.09;100248.50;5091185;28;19962;-43
2023/03/17 08:24:22;;;;;;;;;;;;;;;16.44;31.84;100248.69;5090727;28;19959;-44
2023/03/17 08:26:50;;;;;;;;;;;;;;;16.57;32.08;100249.28;5090541;28;19968;-43
2023/03/17 08:29:15;;;;;;;;;;;;;;;17.87;29.97;100241.19;5089464;28;19918;-44
2023/03/17 08:31:40;;;;;;;;;;;;;;;17.89;29.27;100238.25;5090895;28;19916;-43
2023/03/17 08:34:06;;;;;;;;;;;;;;;18.43;29.55;100229.78;5090656;28;19912;-42
2023/03/17 08:36:32;;;;;;;;;;;;;;;19.73;27.78;100237.69;5090662;28;19912;-43
2023/03/17 08:38:57;;;;;;;;;;;;;;;18.78;29.18;100234.97;5090220;28;20075;-43
2023/03/17 08:41:25;;;;;;;;;;;;;;;18.84;29.22;100231.31;5090558;28;20280;-44
2023/03/17 08:43:51;;;;;;;;;;;;;;;19.43;27.28;100238.88;5089935;28;19912;-42
2023/03/17 08:46:22;;;;;;;;;;;;;;;19.95;27.57;100232.25;5090718;28;19999;-43
2023/03/17 08:48:48;;;;;;;;;;;;;;;20.61;26.78;100226.69;5090322;28;19912;-43
2023/03/17 08:51:14;;;;;;;;;;;;;;;20.74;26.47;100225.44;5090159;28;19970;-42
2023/03/17 08:53:39;;;;;;;;;;;;;;;21.49;25.69;100219.94;5090558;28;20005;-43
2023/03/17 08:56:05;;;;;;;;;;;;;;;21.70;25.54;100214.59;5090539;28;20406;-44
2023/03/17 08:58:31;;;;;;;;;;;;;;;20.47;26.56;100209.25;5090076;28;20457;-42
2023/03/17 09:01:00;;;;;;;;;;;;;;;21.03;26.29;100212.38;5090361;28;19916;-44
2023/03/17 09:03:25;;;;;;;;;;;;;;;20.33;26.36;100210.72;5093187;28;20506;-42
2023/03/17 09:05:51;;;;;;;;;;;;;;;20.12;26.28;100218.63;5094777;28;20014;-42
2023/03/17 09:08:16;;;;;;;;;;;;;;;20.25;26.04;100214.72;5095055;28;19919;-44
2023/03/17 09:10:42;;;;;;;;;;;;;;;20.62;25.33;100217.50;5094571;28;20307;-44
2023/03/17 09:13:07;;;;;;;;;;;;;;;19.67;26.32;100219.75;5094602;28;19916;-43
2023/03/17 09:15:33;;;;;;;;;;;;;;;19.98;26.62;100215.53;5094380;28;19940;-44
2023/03/17 09:17:58;;;;;;;;;;;;;;;19.50;27.47;100220.63;5094578;28;20399;-42
2023/03/17 09:20:24;;;;;;;;;;;;;;;19.54;27.41;100219.06;5094213;28;19916;-42
2023/03/17 09:22:50;;;;;;;;;;;;;;;18.66;28.67;100213.50;5094126;28;19920;-44
2023/03/17 09:25:15;;;;;;;;;;;;;;;18.90;28.34;100218.72;5094513;28;20411;-42
2023/03/17 09:27:41;;;;;;;;;;;;;;;19.22;27.85;100218.91;5094159;28;19916;-44
2023/03/17 09:30:09;;;;;;;;;;;;;;;19.29;28.06;100226.84;5094047;28;19987;-43
2023/03/17 09:32:35;;;;;;;;;;;;;;;18.90;28.50;100229.50;5094036;28;20765;-43
2023/03/17 09:35:00;;;;;;;;;;;;;;;17.32;30.45;100215.53;5094132;28;19911;-44
2023/03/17 09:37:26;;;;;;;;;;;;;;;17.46;30.46;100223.34;5093844;28;19926;-41
2023/03/17 09:39:51;;;;;;;;;;;;;;;17.49;30.59;100220.22;5093489;28;20311;-44
2023/03/17 09:42:35;;;;;;;;;;;;;;;18.00;30.08;100215.03;5093629;28;19912;-43
2023/03/17 09:45:15;;;;;;;;;;;;;;;18.24;30.02;100215.72;5093817;28;19912;-44
2023/03/17 09:47:52;;;;;;;;;;;;;;;18.31;29.85;100219.91;5093564;28;19912;-45
2023/03/17 09:50:44;;;;;;;;;;;;;;;18.09;29.38;100208.22;5093574;28;20046;-42
2023/03/17 09:53:26;;;;;;;;;;;;;;;18.56;28.94;100207.91;5091166;28;19960;-44
2023/03/17 09:55:54;;;;;;;;;;;;;;;19.18;27.64;100214.28;5093561;28;19963;-45
2023/03/17 09:58:23;;;;;;;;;;;;;;;18.78;27.60;100207.19;5093555;28;19912;-44
2023/03/17 10:00:49;;;;;;;;;;;;;;;18.89;27.54;100209.03;5093515;28;19920;-44
2023/03/17 10:03:15;;;;;;;;;;;;;;;19.10;27.07;100210.94;5093333;28;19912;-44
2023/03/17 10:05:40;;;;;;;;;;;;;;;18.35;27.27;100207.59;5093314;28;20403;-44
2023/03/17 10:08:13;;;;;;;;;;;;;;;18.74;27.27;100201.47;5092824;28;19912;-40
2023/03/17 10:10:38;;;;;;;;;;;;;;;18.90;26.99;100211.44;5092731;28;19918;-45
2023/03/17 10:13:08;;;;;;;;;;;;;;;17.49;28.70;100202.19;5092158;28;19912;-43
2023/03/17 10:15:43;;;;;;;;;;;;;;;18.28;27.54;100198.84;5092391;28;19981;-44
2023/03/17 10:18:11;;;;;;;;;;;;;;;16.02;29.00;100204.66;5092812;28;19942;-43
2023/03/17 10:20:41;;;;;;;;;;;;;;;15.87;30.25;100200.75;5092766;28;19916;-43
2023/03/17 10:23:10;;;;;;;;;;;;;;;16.23;29.98;100197.13;5092452;28;20033;-43
2023/03/17 10:25:36;;;;;;;;;;;;;;;16.98;30.72;100198.41;5092563;28;19916;-43
2023/03/17 10:28:04;;;;;;;;;;;;;;;17.54;28.51;100188.84;5092638;28;19946;-46
2023/03/17 10:30:32;;;;;;;;;;;;;;;17.48;28.60;100195.19;5093139;28;19923;-42
2023/03/17 10:32:58;;;;;;;;;;;;;;;17.60;28.23;100189.75;5092538;28;19944;-42
2023/03/17 10:35:24;;;;;;;;;;;;;;;17.47;28.18;100184.66;5092731;28;19962;-43
2023/03/17 10:37:49;;;;;;;;;;;;;;;17.95;27.77;100186.97;5092463;28;19951;-44
2023/03/17 10:40:23;;;;;;;;;;;;;;;18.21;27.37;100181.22;5092151;28;19939;-44
2023/03/17 10:42:52;;;;;;;;;;;;;;;17.34;27.91;100183.88;5092040;28;19919;-43
2023/03/17 10:45:31;;;;;;;;;;;;;;;17.81;27.49;100192.84;5092520;28;20059;-44
2023/03/17 10:47:57;;;;;;;;;;;;;;;17.71;27.48;100193.47;5092415;28;19961;-43
2023/03/17 10:50:24;;;;;;;;;;;;;;;17.56;27.46;100184.03;5092243;28;20376;-44
2023/03/17 10:52:59;;;;;;;;;;;;;;;17.81;26.92;100185.59;5092307;28;20007;-44
2023/03/17 10:55:30;;;;;;;;;;;;;;;17.73;27.08;100183.28;5092664;28;20445;-44
2023/03/17 10:58:00;;;;;;;;;;;;;;;17.93;26.71;100183.72;5092485;28;20440;-44
2023/03/17 11:00:28;;;;;;;;;;;;;;;17.44;27.41;100183.25;5092108;28;19974;-43
2023/03/17 11:02:57;;;;;;;;;;;;;;;17.46;27.76;100177.63;5092227;28;20348;-44
2023/03/17 11:05:23;;;;;;;;;;;;;;;17.20;27.63;100177.91;5092445;28;19961;-43
2023/03/17 11:07:49;;;;;;;;;;;;;;;16.68;28.98;100183.19;5092149;28;20304;-44
2023/03/17 11:10:25;;;;;;;;;;;;;;;17.25;27.68;100177.22;5092135;28;19912;-43
2023/03/17 11:12:56;;;;;;;;;;;;;;;17.79;27.50;100171.56;5091927;28;19912;-43
2023/03/17 11:15:22;;;;;;;;;;;;;;;18.16;27.50;100168.47;5091846;28;19916;-43
2023/03/17 11:17:53;;;;;;;;;;;;;;;18.48;27.09;100176.81;5091670;28;19969;-43
2023/03/17 11:20:29;;;;;;;;;;;;;;;18.60;26.97;100175.91;5091876;28;19959;-45
2023/03/17 11:23:09;;;;;;;;;;;;;;;18.39;27.12;100169.38;5091828;28;19974;-42
2023/03/17 11:25:37;;;;;;;;;;;;;;;17.70;28.02;100164.91;5091141;28;19968;-43
2023/03/17 11:28:03;;;;;;;;;;;;;;;17.85;27.87;100156.34;5091222;28;19919;-44
2023/03/17 11:30:36;;;;;;;;;;;;;;;17.51;28.28;100162.41;5091518;28;19916;-43
2023/03/17 11:33:14;;;;;;;;;;;;;;;16.93;28.53;100163.34;5091462;28;19924;-43
2023/03/17 11:35:51;;;;;;;;;;;;;;;16.80;28.87;100159.81;5091611;28;19987;-44
2023/03/17 11:38:23;;;;;;;;;;;;;;;16.94;28.89;100154.22;5090045;28;19912;-43
2023/03/17 11:41:09;;;;;;;;;;;;;;;16.53;30.08;100155.97;5091369;28;19916;-44
2023/03/17 11:43:41;;;;;;;;;;;;;;;17.38;28.91;100143.84;5091223;28;20077;-44
2023/03/17 11:46:27;;;;;;;;;;;;;;;17.30;28.97;100152.28;5091226;28;19935;-42
2023/03/17 11:49:02;;;;;;;;;;;;;;;17.89;28.13;100146.72;5091622;28;19912;-44
2023/03/17 11:51:29;;;;;;;;;;;;;;;18.04;27.63;100146.19;5091059;28;19922;-44
2023/03/17 11:54:09;;;;;;;;;;;;;;;18.29;27.69;100148.47;5091486;28;19912;-42
2023/03/17 11:56:41;;;;;;;;;;;;;;;18.66;27.16;100148.81;5091845;28;19912;-44
2023/03/17 11:59:15;;;;;;;;;;;;;;;18.26;27.93;100157.88;5091625;28;19912;-44
2023/03/17 12:01:46;;;;;;;;;;;;;;;18.63;27.04;100146.59;5091204;28;19923;-45
2023/03/17 12:04:15;;;;;;;;;;;;;;;18.30;27.42;100153.63;5091122;28;19916;-46
2023/03/17 12:06:53;;;;;;;;;;;;;;;17.85;27.94;100149.06;5091005;28;20003;-44
2023/03/17 12:09:34;;;;;;;;;;;;;;;17.81;28.32;100147.91;5093917;28;19916;-43
2023/03/17 12:12:01;;;;;;;;;;;;;;;17.04;29.15;100146.41;5090832;28;19916;-45
2023/03/17 12:14:47;;;;;;;;;;;;;;;17.36;29.47;100143.28;5098926;28;19974;-44
2023/03/17 12:17:18;;;;;;;;;;;;;;;17.65;28.82;100141.44;5093834;28;19915;-43
2023/03/17 12:20:08;;;;;;;;;;;;;;;17.57;28.85;100142.63;5091977;28;19916;-44
2023/03/17 12:22:39;;;;;;;;;;;;;;;17.74;29.02;100141.84;5085043;28;19939;-38
2023/03/17 12:25:05;;;;;;;;;;;;;;;16.97;30.29;100138.44;5088930;28;19916;-37
2023/03/17 12:27:39;;;;;;;;;;;;;;;17.45;28.98;100138.34;5090919;28;20297;-36
2023/03/17 12:30:14;;;;;;;;;;;;;;;17.57;28.88;100131.03;5091294;28;20260;-37
2023/03/17 12:33:01;;;;;;;;;;;;;;;17.86;28.91;100131.03;5088717;28;19939;-36
2023/03/17 12:35:32;;;;;;;;;;;;;;;18.12;28.00;100141.19;5088798;28;20065;-36
2023/03/17 12:37:59;;;;;;;;;;;;;;;18.03;28.20;100136.47;5087243;28;19912;-38
2023/03/17 12:40:29;;;;;;;;;;;;;;;18.20;27.96;100137.31;5090493;28;19916;-37
2023/03/17 12:43:14;;;;;;;;;;;;;;;18.20;27.73;100139.16;5090368;28;19912;-38
2023/03/17 12:45:51;;;;;;;;;;;;;;;18.26;27.62;100140.88;5090468;28;19923;-37